createdAt,value
2022-12-09T00:01:18.262Z,34.57
2022-12-09T00:04:05.629Z,33.70
2022-12-09T00:06:53.165Z,42.00
2022-12-09T00:09:40.380Z,30.57
2022-12-09T00:12:27.591Z,32.30
2022-12-09T00:15:15.008Z,36.90
2022-12-09T00:18:02.168Z,33.67
2022-12-09T00:20:49.474Z,33.30
2022-12-09T00:23:36.827Z,30.53
2022-12-09T00:26:25.510Z,33.80
2022-12-09T00:29:13.305Z,35.03
2022-12-09T00:32:00.587Z,37.63
2022-12-09T00:34:49.055Z,32.90
2022-12-09T00:37:36.186Z,41.63
2022-12-09T00:40:23.550Z,41.80
2022-12-09T00:43:10.647Z,38.47
2022-12-09T00:45:58.388Z,40.60
2022-12-09T00:48:46.113Z,40.60
2022-12-09T00:51:33.667Z,42.83
2022-12-09T00:54:21.121Z,40.47
2022-12-09T00:57:08.418Z,38.63
2022-12-09T00:59:55.505Z,41.40
2022-12-09T01:02:42.874Z,41.50
2022-12-09T01:05:30.331Z,42.17
2022-12-09T01:08:17.686Z,40.40
2022-12-09T01:11:13.457Z,43.50
2022-12-09T01:14:03.098Z,37.83
2022-12-09T01:16:50.497Z,39.47
2022-12-09T01:19:39.329Z,38.20
2022-12-09T01:22:26.456Z,45.53
2022-12-09T01:25:14.069Z,43.67
2022-12-09T01:28:01.248Z,42.60
2022-12-09T01:30:53.067Z,42.77
2022-12-09T01:33:41.498Z,41.57
2022-12-09T01:36:30.446Z,45.53
2022-12-09T01:39:18.364Z,55.33
2022-12-09T01:42:06.361Z,43.87
2022-12-09T01:45:30.810Z,44.33
2022-12-09T01:48:25.728Z,41.63
2022-12-09T01:51:16.878Z,46.60
2022-12-09T01:54:04.508Z,41.90
2022-12-09T01:56:52.533Z,45.60
2022-12-09T01:59:40.520Z,44.63
2022-12-09T02:02:30.639Z,44.33
2022-12-09T02:05:20.324Z,54.50
2022-12-09T02:08:16.703Z,44.13
2022-12-09T02:11:10.987Z,47.87
2022-12-09T02:14:08.222Z,41.87
2022-12-09T02:17:10.650Z,43.30
2022-12-09T02:20:16.733Z,57.70
2022-12-09T02:23:16.395Z,46.03
2022-12-09T02:26:19.086Z,40.47
2022-12-09T02:29:24.308Z,49.30
2022-12-09T02:32:36.508Z,51.97
2022-12-09T02:35:43.965Z,42.30
2022-12-09T02:38:33.456Z,48.17
2022-12-09T02:41:26.328Z,44.50
2022-12-09T02:44:17.621Z,44.63
2022-12-09T02:47:07.423Z,48.20
2022-12-09T02:50:09.760Z,49.03
2022-12-09T02:53:02.045Z,46.87
2022-12-09T02:55:50.486Z,44.27
2022-12-09T02:58:38.001Z,43.63
2022-12-09T03:01:36.792Z,42.10
2022-12-09T03:04:27.926Z,49.13
2022-12-09T03:07:26.858Z,51.07
2022-12-09T03:10:31.124Z,47.37
2022-12-09T03:13:23.356Z,44.87
2022-12-09T03:16:37.621Z,41.53
2022-12-09T03:19:33.804Z,43.63
2022-12-09T03:22:26.034Z,44.47
2022-12-09T03:25:24.573Z,49.63
2022-12-09T03:28:32.097Z,48.57
2022-12-09T03:31:24.443Z,44.63
2022-12-09T03:34:17.084Z,46.87
2022-12-09T03:37:06.662Z,43.33
2022-12-09T03:39:55.995Z,49.03
2022-12-09T03:42:49.292Z,50.40
2022-12-09T03:45:37.121Z,50.20
2022-12-09T03:48:25.100Z,51.83
2022-12-09T03:51:43.258Z,41.90
2022-12-09T03:54:39.266Z,42.63
2022-12-09T03:57:29.209Z,46.87
2022-12-09T04:00:18.219Z,45.10
2022-12-09T04:03:07.815Z,48.10
2022-12-09T04:05:55.893Z,44.80
2022-12-09T04:08:43.388Z,46.43
2022-12-09T04:11:34.367Z,43.03
2022-12-09T04:14:22.362Z,44.17
2022-12-09T04:17:12.205Z,42.13
2022-12-09T04:19:59.452Z,49.73
2022-12-09T04:22:46.910Z,45.50
2022-12-09T04:25:34.103Z,47.40
2022-12-09T04:28:21.763Z,42.17
2022-12-09T04:31:13.782Z,45.87
2022-12-09T04:34:08.359Z,38.70
2022-12-09T04:36:56.750Z,42.13
2022-12-09T04:39:44.154Z,53.87
2022-12-09T04:42:31.451Z,49.13
2022-12-09T04:45:18.647Z,42.13
2022-12-09T04:48:06.872Z,43.20
2022-12-09T04:50:54.201Z,50.17
2022-12-09T04:53:42.003Z,44.63
2022-12-09T04:56:29.485Z,44.40
2022-12-09T04:59:16.963Z,44.00
2022-12-09T05:02:04.420Z,49.10
2022-12-09T05:04:51.721Z,41.37
2022-12-09T05:07:39.743Z,40.20
2022-12-09T05:10:27.286Z,43.40
2022-12-09T05:13:04.474Z,40.60
2022-12-09T05:15:51.535Z,35.47
2022-12-09T05:18:39.717Z,36.90
2022-12-09T05:21:28.100Z,36.93
2022-12-09T05:24:15.568Z,44.00
2022-12-09T05:27:03.270Z,43.00
2022-12-09T05:29:50.480Z,34.70
2022-12-09T05:32:37.853Z,50.60
2022-12-09T05:35:24.978Z,39.03
2022-12-09T05:38:12.831Z,38.30
2022-12-09T05:41:04.091Z,50.87
2022-12-09T05:43:51.949Z,41.60
2022-12-09T05:46:39.093Z,36.20
2022-12-09T05:49:26.888Z,40.90
2022-12-09T05:52:14.563Z,36.57
2022-12-09T05:55:05.374Z,31.40
2022-12-09T05:57:52.752Z,37.03
2022-12-09T06:00:40.275Z,37.90
2022-12-09T06:03:28.262Z,30.60
2022-12-09T06:06:17.843Z,40.70
2022-12-09T06:09:08.872Z,30.50
2022-12-09T06:11:56.339Z,33.10
2022-12-09T06:14:43.750Z,38.43
2022-12-09T06:17:30.871Z,31.90
2022-12-09T06:20:18.877Z,37.97
2022-12-09T06:23:06.607Z,34.87
2022-12-09T06:25:53.701Z,33.50
2022-12-09T06:28:41.089Z,33.40
2022-12-09T06:31:30.172Z,32.80
2022-12-09T06:34:17.482Z,33.53
2022-12-09T06:37:05.204Z,34.77
2022-12-09T06:39:52.218Z,29.37
2022-12-09T06:42:39.573Z,32.30
2022-12-09T06:45:26.993Z,33.20
2022-12-09T06:48:14.034Z,28.03
2022-12-09T06:51:02.034Z,24.97
2022-12-09T06:53:49.674Z,31.03
2022-12-09T06:56:37.332Z,33.07
2022-12-09T06:59:25.454Z,31.23
2022-12-09T07:02:13.371Z,29.13
2022-12-09T07:05:00.936Z,30.90
2022-12-09T07:07:52.398Z,32.00
2022-12-09T07:10:41.785Z,26.67
2022-12-09T07:13:30.062Z,29.00
2022-12-09T07:16:17.875Z,31.70
2022-12-09T07:19:05.639Z,30.07
2022-12-09T07:21:53.260Z,24.80
2022-12-09T07:24:41.288Z,29.00
2022-12-09T07:27:28.642Z,29.03
2022-12-09T07:30:16.264Z,25.00
2022-12-09T07:33:03.318Z,26.90
2022-12-09T07:35:53.896Z,24.80
2022-12-09T07:38:41.017Z,26.30
2022-12-09T07:41:29.122Z,28.30
2022-12-09T07:44:16.176Z,30.73
2022-12-09T07:47:03.364Z,22.77
2022-12-09T07:49:50.727Z,28.43
2022-12-09T07:52:37.820Z,23.70
2022-12-09T07:55:25.706Z,27.50
2022-12-09T07:58:12.947Z,25.43
2022-12-09T08:01:11.441Z,27.93
2022-12-09T08:03:59.479Z,26.53
2022-12-09T08:06:47.196Z,34.53
2022-12-09T08:09:34.900Z,28.47
2022-12-09T08:12:23.708Z,28.87
2022-12-09T08:15:11.511Z,26.63
2022-12-09T08:17:59.556Z,25.63
2022-12-09T08:20:47.034Z,26.03
2022-12-09T08:23:34.925Z,24.43
2022-12-09T08:26:24.820Z,28.13
2022-12-09T08:29:14.294Z,32.00
2022-12-09T08:32:02.244Z,30.97
2022-12-09T08:34:49.696Z,23.97
2022-12-09T08:37:37.024Z,24.27
2022-12-09T08:40:24.817Z,26.10
2022-12-09T08:43:12.715Z,27.37
2022-12-09T08:46:00.458Z,29.00
2022-12-09T08:48:48.161Z,26.10
2022-12-09T08:51:36.639Z,25.60
2022-12-09T08:54:24.436Z,28.30
2022-12-09T08:57:12.402Z,24.70
2022-12-09T08:59:59.806Z,27.27
2022-12-09T09:02:47.610Z,29.73
2022-12-09T09:05:35.174Z,31.47
2022-12-09T09:08:22.818Z,29.30
2022-12-09T09:11:12.531Z,27.97
2022-12-09T09:14:00.536Z,30.47
2022-12-09T09:16:48.153Z,31.93
2022-12-09T09:19:36.774Z,33.13
2022-12-09T09:22:24.222Z,31.43
2022-12-09T09:25:11.742Z,35.67
2022-12-09T09:27:59.757Z,28.93
2022-12-09T09:30:50.365Z,32.70
2022-12-09T09:33:38.110Z,29.23
2022-12-09T09:36:25.757Z,34.50
2022-12-09T09:39:13.806Z,29.77
2022-12-09T09:42:08.611Z,41.87
2022-12-09T09:44:58.298Z,34.33
2022-12-09T09:47:50.223Z,30.57
2022-12-09T09:50:49.548Z,31.30
2022-12-09T09:53:37.111Z,29.43
2022-12-09T09:56:45.954Z,38.10
2022-12-09T09:59:36.789Z,35.30
2022-12-09T10:02:45.893Z,29.90
2022-12-09T10:05:38.437Z,33.53
2022-12-09T10:08:48.671Z,34.70
2022-12-09T10:11:52.834Z,34.70
2022-12-09T10:15:05.249Z,30.90
2022-12-09T10:17:58.135Z,32.63
2022-12-09T10:20:46.127Z,30.33
2022-12-09T10:23:33.446Z,34.27
2022-12-09T10:26:32.792Z,31.60
2022-12-09T10:29:49.153Z,32.80
2022-12-09T10:32:37.806Z,30.87
2022-12-09T10:35:28.732Z,32.50
2022-12-09T10:38:19.075Z,28.13
2022-12-09T10:41:15.907Z,36.77
2022-12-09T10:44:22.479Z,33.83
2022-12-09T10:47:27.112Z,40.43
2022-12-09T10:50:29.989Z,27.50
2022-12-09T10:53:17.343Z,28.27
2022-12-09T10:56:05.124Z,29.10
2022-12-09T10:59:17.256Z,27.00
2022-12-09T11:02:11.027Z,27.93
2022-12-09T11:05:26.506Z,33.80
2022-12-09T11:08:23.125Z,31.20
2022-12-09T11:11:11.113Z,35.10
2022-12-09T11:13:58.470Z,34.13
2022-12-09T11:16:45.733Z,36.43
2022-12-09T11:19:39.054Z,26.17
2022-12-09T11:22:40.314Z,30.67
2022-12-09T11:25:31.928Z,25.20
2022-12-09T11:28:19.563Z,31.93
2022-12-09T11:31:28.927Z,25.60
2022-12-09T11:34:26.150Z,25.47
2022-12-09T11:37:13.673Z,32.47
2022-12-09T11:40:00.724Z,24.10
2022-12-09T11:42:53.716Z,23.07
2022-12-09T11:45:45.606Z,25.27
2022-12-09T11:48:40.106Z,31.53
2022-12-09T11:51:34.520Z,26.07
2022-12-09T11:54:40.234Z,25.80
2022-12-09T11:57:47.186Z,21.67
2022-12-09T12:00:42.770Z,26.73
2022-12-09T12:03:46.307Z,23.80
2022-12-09T12:06:43.587Z,24.20
2022-12-09T12:09:47.684Z,27.13
2022-12-09T12:13:00.276Z,27.30
2022-12-09T12:16:13.298Z,24.73
2022-12-09T12:19:09.636Z,25.07
2022-12-09T12:22:17.428Z,26.13
2022-12-09T12:25:25.666Z,29.33
2022-12-09T12:28:38.737Z,36.23
2022-12-09T12:31:38.015Z,29.00
2022-12-09T12:34:46.802Z,23.07
2022-12-09T12:38:10.587Z,27.87
2022-12-09T12:41:18.579Z,25.13
2022-12-09T12:44:42.740Z,24.77
2022-12-09T12:47:32.667Z,23.50
2022-12-09T12:50:47.309Z,30.07
2022-12-09T12:53:46.407Z,24.43
2022-12-09T12:56:39.404Z,27.63
2022-12-09T12:59:37.573Z,23.33
2022-12-09T13:02:39.857Z,25.00
2022-12-09T13:05:40.819Z,27.27
2022-12-09T13:08:41.298Z,24.07
2022-12-09T13:12:06.353Z,27.50
2022-12-09T13:14:55.326Z,31.07
2022-12-09T13:17:44.385Z,25.50
2022-12-09T13:20:46.461Z,26.30
2022-12-09T13:23:58.378Z,31.30
2022-12-09T13:27:03.841Z,23.47
2022-12-09T13:30:26.855Z,29.33
2022-12-09T13:33:31.606Z,25.03
2022-12-09T13:36:18.626Z,23.47
2022-12-09T13:39:10.903Z,24.97
2022-12-09T13:42:16.849Z,20.83
2022-12-09T13:45:14.112Z,21.80
2022-12-09T13:48:17.030Z,20.40
2022-12-09T13:51:05.122Z,21.90
2022-12-09T13:54:02.581Z,25.83
2022-12-09T13:57:09.772Z,26.03
2022-12-09T14:00:01.712Z,26.83
2022-12-09T14:03:02.594Z,22.50
2022-12-09T14:05:52.424Z,24.73
2022-12-09T14:08:47.788Z,23.67
2022-12-09T14:11:37.445Z,26.53
2022-12-09T14:14:24.857Z,23.80
2022-12-09T14:17:19.859Z,24.70
2022-12-09T14:20:18.836Z,25.23
2022-12-09T14:23:09.874Z,27.57
2022-12-09T14:26:00.563Z,25.90
2022-12-09T14:28:52.978Z,27.23
2022-12-09T14:31:56.330Z,24.30
2022-12-09T14:34:43.840Z,23.37
2022-12-09T14:38:04.514Z,29.30
2022-12-09T14:41:06.634Z,33.63
2022-12-09T14:44:16.020Z,22.57
2022-12-09T14:47:23.412Z,38.03
2022-12-09T14:50:19.579Z,29.23
2022-12-09T14:53:19.017Z,31.20
2022-12-09T14:56:06.354Z,27.83
2022-12-09T14:58:59.550Z,24.50
2022-12-09T15:01:52.649Z,33.73
2022-12-09T15:04:46.169Z,29.77
2022-12-09T15:07:34.374Z,26.33
2022-12-09T15:10:30.878Z,27.50
2022-12-09T15:13:20.107Z,28.80
2022-12-09T15:16:14.268Z,30.63
2022-12-09T15:19:01.296Z,27.40
2022-12-09T15:21:49.543Z,28.83
2022-12-09T15:24:49.675Z,32.13
2022-12-09T15:27:37.926Z,31.43
2022-12-09T15:30:30.580Z,28.60
2022-12-09T15:33:20.064Z,27.20
2022-12-09T15:36:11.821Z,29.50
2022-12-09T15:39:21.261Z,27.30
2022-12-09T15:42:15.146Z,22.00
2022-12-09T15:45:16.720Z,28.57
2022-12-09T15:48:23.476Z,21.83
2022-12-09T15:51:19.251Z,24.77
2022-12-09T15:54:11.037Z,27.53
2022-12-09T15:57:01.436Z,29.97
2022-12-09T15:59:56.478Z,32.40
2022-12-09T16:02:45.744Z,34.83
2022-12-09T16:05:36.025Z,35.67
2022-12-09T16:08:43.033Z,34.63
2022-12-09T16:11:39.219Z,34.47
2022-12-09T16:14:39.915Z,30.40
2022-12-09T16:17:34.786Z,33.37
2022-12-09T16:20:32.902Z,30.77
2022-12-09T16:23:24.367Z,28.70
2022-12-09T16:26:27.130Z,30.63
2022-12-09T16:29:27.372Z,28.50
2022-12-09T16:32:17.590Z,33.63
2022-12-09T16:35:10.531Z,33.83
2022-12-09T16:37:57.401Z,29.27
2022-12-09T16:40:44.411Z,28.17
2022-12-09T16:43:32.767Z,24.40
2022-12-09T16:46:40.902Z,32.07
2022-12-09T16:49:28.010Z,35.93
2022-12-09T16:52:20.868Z,25.53
2022-12-09T16:55:20.321Z,26.07
2022-12-09T16:58:10.795Z,23.47
2022-12-09T17:00:59.358Z,26.40
2022-12-09T17:03:53.354Z,23.60
2022-12-09T17:06:40.441Z,26.37
2022-12-09T17:09:27.425Z,33.73
2022-12-09T17:14:44.787Z,27.50
2022-12-09T17:17:32.023Z,24.63
2022-12-09T17:20:18.956Z,28.53
2022-12-09T17:23:05.948Z,28.23
2022-12-09T17:26:01.126Z,29.03
2022-12-09T17:28:49.452Z,23.23
2022-12-09T17:31:36.607Z,24.27
2022-12-09T17:34:23.607Z,29.13
2022-12-09T17:37:11.380Z,29.83
2022-12-09T17:40:03.422Z,24.83
2022-12-09T17:42:51.381Z,27.17
2022-12-09T17:45:42.090Z,26.63
2022-12-09T17:48:31.326Z,37.50
2022-12-09T17:51:18.671Z,28.00
2022-12-09T17:54:05.979Z,34.10
2022-12-09T17:56:53.018Z,28.80
2022-12-09T17:59:40.289Z,31.20
2022-12-09T18:02:27.650Z,31.60
2022-12-09T18:05:14.840Z,30.87
2022-12-09T18:08:02.016Z,23.33
2022-12-09T18:10:49.041Z,29.47
2022-12-09T18:13:37.062Z,31.67
2022-12-09T18:16:24.216Z,29.50
2022-12-09T18:19:14.888Z,30.87
2022-12-09T18:22:02.754Z,27.57
2022-12-09T18:24:49.891Z,26.53
2022-12-09T18:27:36.882Z,27.53
2022-12-09T18:30:23.925Z,23.50
2022-12-09T18:33:10.984Z,23.40
2022-12-09T18:35:57.921Z,34.97
2022-12-09T18:38:45.410Z,25.53
2022-12-09T18:41:33.328Z,25.30
2022-12-09T18:44:20.627Z,26.27
2022-12-09T18:47:07.770Z,30.13
2022-12-09T18:49:57.688Z,31.07
2022-12-09T18:52:45.163Z,29.73
2022-12-09T18:55:32.445Z,32.27
2022-12-09T18:58:31.536Z,24.83
2022-12-09T19:01:30.208Z,26.57
2022-12-09T19:04:25.897Z,31.97
2022-12-09T19:07:14.147Z,32.17
2022-12-09T19:10:01.437Z,33.07
2022-12-09T19:12:52.656Z,48.80
2022-12-09T19:15:44.438Z,31.83
2022-12-09T19:18:31.962Z,28.80
2022-12-09T19:21:20.412Z,30.77
2022-12-09T19:24:11.436Z,32.80
2022-12-09T19:26:58.661Z,29.53
2022-12-09T19:29:45.841Z,39.47
2022-12-09T19:32:52.488Z,43.40
2022-12-09T19:35:40.148Z,39.60
2022-12-09T19:38:27.361Z,48.73
2022-12-09T19:41:14.547Z,47.80
2022-12-09T19:44:04.147Z,45.97
2022-12-09T19:46:51.262Z,47.07
2022-12-09T19:49:41.166Z,45.17
2022-12-09T19:52:28.379Z,49.30
2022-12-09T19:55:15.610Z,42.50
2022-12-09T19:58:03.919Z,52.33
2022-12-09T20:00:51.272Z,51.27
2022-12-09T20:03:40.650Z,52.40
2022-12-09T20:06:28.130Z,52.20
2022-12-09T20:09:19.712Z,50.70
2022-12-09T20:12:07.015Z,56.23
2022-12-09T20:14:54.247Z,53.60
2022-12-09T20:17:41.577Z,54.57
2022-12-09T20:20:28.760Z,51.93
2022-12-09T20:23:16.192Z,56.10
2022-12-09T20:26:09.339Z,53.00
2022-12-09T20:28:58.006Z,50.40
2022-12-09T20:31:45.171Z,48.10
2022-12-09T20:34:32.612Z,57.33
2022-12-09T20:37:19.996Z,59.13
2022-12-09T20:40:08.133Z,47.87
2022-12-09T20:42:55.471Z,48.60
2022-12-09T20:45:42.681Z,49.87
2022-12-09T20:48:30.043Z,49.70
2022-12-09T20:51:25.795Z,46.53
2022-12-09T20:54:13.724Z,44.27
2022-12-09T20:57:01.590Z,51.70
2022-12-09T20:59:48.767Z,52.50
2022-12-09T21:02:40.340Z,58.80
2022-12-09T21:05:27.489Z,62.43
2022-12-09T21:08:15.864Z,52.30
2022-12-09T21:11:08.873Z,57.90
2022-12-09T21:14:00.969Z,49.20
2022-12-09T21:16:50.600Z,60.60
2022-12-09T21:19:38.042Z,51.40
2022-12-09T21:22:25.364Z,52.43
2022-12-09T21:25:12.901Z,58.97
2022-12-09T21:28:00.074Z,55.30
2022-12-09T21:30:47.502Z,55.27
2022-12-09T21:33:35.496Z,53.57
2022-12-09T21:36:27.511Z,55.97
2022-12-09T21:39:16.580Z,51.70
2022-12-09T21:42:04.099Z,50.50
2022-12-09T21:44:51.413Z,59.17
2022-12-09T21:47:40.267Z,51.10
2022-12-09T21:50:27.397Z,56.97
2022-12-09T21:53:14.943Z,61.53
2022-12-09T21:56:04.364Z,64.00
2022-12-09T21:58:54.907Z,65.30
2022-12-09T22:01:42.930Z,58.00
2022-12-09T22:04:30.157Z,51.57
2022-12-09T22:07:17.383Z,64.47
2022-12-09T22:10:05.047Z,61.03
2022-12-09T22:12:52.876Z,55.07
2022-12-09T22:15:40.042Z,58.27
2022-12-09T22:18:27.130Z,64.17
2022-12-09T22:21:26.399Z,61.13
2022-12-09T22:24:15.173Z,51.40
2022-12-09T22:27:02.482Z,53.10
2022-12-09T22:29:49.866Z,59.10
2022-12-09T22:32:41.132Z,50.70
2022-12-09T22:35:30.107Z,67.20
2022-12-09T22:38:17.590Z,57.13
2022-12-09T22:41:06.705Z,50.87
2022-12-09T22:43:55.451Z,56.50
2022-12-09T22:46:43.004Z,52.77
2022-12-09T22:49:30.678Z,52.70
2022-12-09T22:52:18.010Z,57.03
2022-12-09T22:55:06.420Z,53.13
2022-12-09T22:57:53.565Z,60.53
2022-12-09T23:00:43.890Z,65.23
2022-12-09T23:03:31.186Z,55.20
2022-12-09T23:06:18.932Z,51.17
2022-12-09T23:09:08.555Z,56.13
2022-12-09T23:11:55.894Z,57.10
2022-12-09T23:14:43.236Z,52.27
2022-12-09T23:17:30.367Z,54.20
2022-12-09T23:20:17.839Z,56.70
2022-12-09T23:23:04.979Z,44.47
2022-12-09T23:25:52.087Z,57.57
2022-12-09T23:28:45.221Z,59.07
2022-12-09T23:31:35.340Z,57.50
2022-12-09T23:34:23.660Z,57.30
2022-12-09T23:37:11.044Z,48.33
2022-12-09T23:39:58.176Z,52.10
2022-12-09T23:42:45.592Z,57.20
2022-12-09T23:45:34.084Z,58.93
2022-12-09T23:48:21.190Z,67.27
2022-12-09T23:51:16.646Z,53.27
2022-12-09T23:54:06.433Z,47.97
2022-12-09T23:56:53.873Z,52.90
2022-12-09T23:59:41.062Z,52.17
